This is the latest recevied weather packets stored in our database for station/object KF5JED-13. If no packets are shown the sender has not sent any weather packets the latest 10 day(s).
| Time | Temp. | Humidity | Pressure | Rain* | Wind** | Luminosity | Snow |
|---|---|---|---|---|---|---|---|
| 1777761951 | 22.78° C | 21% | 1019.1 hPa | 0 mm | - | 461 W/m² | - |
| 1777761648 | 23.33° C | 20% | 1019 hPa | 0 mm | - | 481 W/m² | - |
| 1777761346 | 23.33° C | 21% | 1019.1 hPa | 0 mm | - | 497 W/m² | - |
| 1777761044 | 23.33° C | 20% | 1019 hPa | 0 mm | - | 512 W/m² | - |
| 1777760741 | 22.78° C | 21% | 1019.1 hPa | 0 mm | - | 527 W/m² | - |
| 1777760437 | 23.33° C | 21% | 1019.2 hPa | 0 mm | - | 550 W/m² | - |
| 1777760133 | 22.78° C | 21% | 1019.2 hPa | 0 mm | - | 560 W/m² | - |
| 1777759831 | 23.33° C | 21% | 1019.2 hPa | 0 mm | - | 562 W/m² | - |
| 1777759526 | 23.89° C | 20% | 1019.4 hPa | 0 mm | - | 570 W/m² | - |
| 1777759223 | 22.78° C | 22% | 1019.4 hPa | 0 mm | - | 587 W/m² | - |
| 1777758921 | 21.11° C | 22% | 1019.5 hPa | 0 mm | - | 594 W/m² | - |
| 1777758617 | 21.67° C | 21% | 1019.2 hPa | 0 mm | - | 116 W/m² | - |
| 1777758315 | 23.33° C | 20% | 1019.6 hPa | 0 mm | - | 641 W/m² | - |
| 1777758012 | 22.78° C | 21% | 1019.7 hPa | 0 mm | - | 655 W/m² | - |
| 1777757708 | 22.22° C | 21% | 1019.6 hPa | 0 mm | - | 651 W/m² | - |
| 1777757407 | 22.78° C | 20% | 1019.9 hPa | 0 mm | - | 661 W/m² | - |
| 1777757105 | 22.78° C | 21% | 1019.8 hPa | 0 mm | - | 676 W/m² | - |
| 1777756802 | 22.22° C | 21% | 1019.8 hPa | 0 mm | - | 689 W/m² | - |
| 1777756497 | 22.22° C | 22% | 1019.9 hPa | 0 mm | - | 701 W/m² | - |
| 1777756195 | 22.22° C | 21% | 1020.1 hPa | 0 mm | - | 715 W/m² | - |
| 1777755892 | 22.22° C | 23% | 1020.2 hPa | 0 mm | - | 726 W/m² | - |
| 1777755589 | 22.78° C | 21% | 1020.1 hPa | 0 mm | - | 735 W/m² | - |
| 1777755285 | 22.78° C | 21% | 1020 hPa | 0 mm | - | 750 W/m² | - |
| 1777754983 | 22.22° C | 21% | 1020.2 hPa | 0 mm | - | 779 W/m² | - |
| 1777754679 | 21.11° C | 23% | 1020.5 hPa | 0 mm | - | 794 W/m² | - |
* Rain latest hour (hover to see other rain measurements)
** Current wind speed in m/s (hover to see current wind gust speed)